White Pine, Colorado
Current Conditions -  °F | °C
As of 8:57 AM on Saturday 25 Oct 2014 (Local Time) from KMYP Reporting Station
Clear Clear  
Wind Chill: 31°   Ceiling: Unl
Heat Index: 39°   Visibility: 10mi
Dew Point: 18°   Wind: 14mph
Humidity: 42%   Direction: 260°W
Pressure: 30.74"   Gusts: NA
Location:  38.4045°N, 106.414°W
Report Text: KMYP 251457Z AUTO 26012KT 10SM CLR 04/M08 A3074 RMK AO2
Loading
Personal Weather Stations






























Interactive Weather Map
Tropical Storm Tracking
New forecast layout! Learn more

10-Day Weather Forecast

Advertisements
Track Severe Weather on mobile